createdAt,value
2018-08-16T00:01:51.930Z,100930.33
2018-08-16T00:04:20.003Z,100933.92
2018-08-16T00:06:48.130Z,100933.27
2018-08-16T00:09:16.211Z,100935.97
2018-08-16T00:11:44.308Z,100934.43
2018-08-16T00:14:12.436Z,100937.31
2018-08-16T00:16:40.529Z,100940.84
2018-08-16T00:19:08.599Z,100934.00
2018-08-16T00:21:36.691Z,100934.28
2018-08-16T00:24:04.774Z,100928.44
2018-08-16T00:26:32.915Z,100928.28
2018-08-16T00:29:01.012Z,100929.34
2018-08-16T00:31:29.108Z,100924.05
2018-08-16T00:33:57.204Z,100924.14
2018-08-16T00:36:25.291Z,100921.99
2018-08-16T00:38:53.380Z,100918.55
2018-08-16T00:41:21.459Z,100922.17
2018-08-16T00:43:49.551Z,100920.03
2018-08-16T00:46:17.642Z,100927.10
2018-08-16T00:48:45.828Z,100917.34
2018-08-16T00:51:13.903Z,100916.12
2018-08-16T00:53:41.980Z,100922.67
2018-08-16T00:56:10.069Z,100912.39
2018-08-16T00:58:38.160Z,100915.31
2018-08-16T01:01:06.253Z,100914.77
2018-08-16T01:03:34.431Z,100917.89
2018-08-16T01:06:02.596Z,100912.94
2018-08-16T01:08:30.776Z,100909.73
2018-08-16T01:10:58.850Z,100903.56
2018-08-16T01:13:26.920Z,100908.45
2018-08-16T01:15:55.092Z,100907.80
2018-08-16T01:18:23.187Z,100908.45
2018-08-16T01:20:51.281Z,100908.94
2018-08-16T01:23:19.364Z,100905.98
2018-08-16T01:25:47.435Z,100907.27
2018-08-16T01:28:15.503Z,100901.22
2018-08-16T01:30:43.578Z,100901.28
2018-08-16T01:33:11.667Z,100901.73
2018-08-16T01:35:39.810Z,100903.33
2018-08-16T01:38:07.796Z,100905.13
2018-08-16T01:40:35.848Z,100897.17
2018-08-16T01:43:03.917Z,100906.91
2018-08-16T01:45:32.037Z,100900.28
2018-08-16T01:48:00.133Z,100894.77
2018-08-16T01:50:28.192Z,100894.28
2018-08-16T01:52:56.263Z,100889.22
2018-08-16T01:55:24.348Z,100892.18
2018-08-16T01:57:58.988Z,100882.48
2018-08-16T02:00:27.050Z,100882.48
2018-08-16T02:02:55.126Z,100885.91
2018-08-16T02:05:23.193Z,100891.81
2018-08-16T02:07:51.324Z,100891.59
2018-08-16T02:10:19.444Z,100882.16
2018-08-16T02:12:47.564Z,100886.64
2018-08-16T02:15:15.614Z,100887.17
2018-08-16T02:17:43.679Z,100885.01
2018-08-16T02:20:13.476Z,100890.14
2018-08-16T02:22:41.984Z,100890.02
2018-08-16T02:25:10.071Z,100886.26
2018-08-16T02:27:38.131Z,100886.20
2018-08-16T02:30:06.547Z,100884.33
2018-08-16T02:32:34.620Z,100887.27
2018-08-16T02:35:02.783Z,100875.78
2018-08-16T02:37:31.065Z,100875.22
2018-08-16T02:39:59.163Z,100876.38
2018-08-16T02:42:27.276Z,100875.27
2018-08-16T02:44:55.420Z,100876.52
2018-08-16T02:47:23.523Z,100873.72
2018-08-16T02:49:51.596Z,100876.42
2018-08-16T02:52:19.657Z,100876.38
2018-08-16T02:54:47.763Z,100873.44
2018-08-16T02:57:15.837Z,100874.01
2018-08-16T02:59:44.056Z,100872.70
2018-08-16T03:02:12.141Z,100866.38
2018-08-16T03:04:40.201Z,100869.59
2018-08-16T03:07:08.277Z,100868.47
2018-08-16T03:09:36.371Z,100869.03
2018-08-16T03:12:04.481Z,100876.63
2018-08-16T03:14:32.597Z,100875.69
2018-08-16T03:17:00.671Z,100872.13
2018-08-16T03:19:28.751Z,100868.50
2018-08-16T03:21:56.825Z,100870.48
2018-08-16T03:24:24.903Z,100866.20
2018-08-16T03:26:52.963Z,100868.73
2018-08-16T03:29:21.051Z,100868.86
2018-08-16T03:31:49.156Z,100864.08
2018-08-16T03:34:17.229Z,100859.31
2018-08-16T03:36:45.379Z,100854.30
2018-08-16T03:39:13.521Z,100847.88
2018-08-16T03:41:41.603Z,100856.48
2018-08-16T03:44:09.683Z,100851.33
2018-08-16T03:46:37.739Z,100849.98
2018-08-16T03:49:06.035Z,100851.84
2018-08-16T03:54:08.438Z,100846.56
2018-08-16T03:56:36.519Z,100844.44
2018-08-16T03:59:04.600Z,100847.14
2018-08-16T04:01:32.662Z,100846.47
2018-08-16T04:04:00.762Z,100846.34
2018-08-16T04:06:28.819Z,100847.59
2018-08-16T04:08:56.941Z,100845.72
2018-08-16T04:11:25.010Z,100843.77
2018-08-16T04:13:53.095Z,100851.12
2018-08-16T04:16:21.207Z,100845.63
2018-08-16T04:18:49.280Z,100854.53
2018-08-16T04:21:17.335Z,100857.64
2018-08-16T04:23:45.460Z,100853.48
2018-08-16T04:26:13.545Z,100848.21
2018-08-16T04:28:41.607Z,100849.45
2018-08-16T04:31:09.687Z,100850.42
2018-08-16T04:33:37.777Z,100845.73
2018-08-16T04:36:05.833Z,100838.68
2018-08-16T04:38:33.930Z,100846.92
2018-08-16T04:41:02.015Z,100843.84
2018-08-16T04:43:30.112Z,100845.98
2018-08-16T04:45:58.174Z,100849.91
2018-08-16T04:48:26.265Z,100848.12
2018-08-16T04:50:54.320Z,100842.31
2018-08-16T04:53:22.416Z,100842.66
2018-08-16T04:55:50.477Z,100839.20
2018-08-16T04:58:18.561Z,100843.94
2018-08-16T05:00:46.737Z,100841.45
2018-08-16T05:03:14.831Z,100842.05
2018-08-16T05:05:42.910Z,100838.52
2018-08-16T05:08:11.016Z,100837.95
2018-08-16T05:10:39.188Z,100842.55
2018-08-16T05:13:07.269Z,100843.48
2018-08-16T05:15:35.335Z,100844.77
2018-08-16T05:18:03.409Z,100840.72
2018-08-16T05:20:37.910Z,100845.42
2018-08-16T05:23:05.999Z,100845.42
2018-08-16T05:25:34.072Z,100843.87
2018-08-16T05:28:02.200Z,100844.94
2018-08-16T05:30:30.348Z,100848.48
2018-08-16T05:32:58.460Z,100846.52
2018-08-16T05:35:26.589Z,100844.42
2018-08-16T05:37:54.688Z,100837.90
2018-08-16T05:40:22.775Z,100838.14
2018-08-16T05:42:50.954Z,100840.46
2018-08-16T05:45:19.064Z,100845.55
2018-08-16T05:47:47.132Z,100845.80
2018-08-16T05:50:15.281Z,100848.10
2018-08-16T05:52:43.409Z,100842.02
2018-08-16T05:55:11.495Z,100835.58
2018-08-16T05:57:39.780Z,100834.38
2018-08-16T06:00:10.188Z,100829.84
2018-08-16T06:02:39.155Z,100835.85
2018-08-16T06:05:08.111Z,100842.96
2018-08-16T06:07:36.645Z,100838.52
2018-08-16T06:10:05.746Z,100839.77
2018-08-16T06:12:33.915Z,100836.47
2018-08-16T06:15:02.084Z,100837.75
2018-08-16T06:17:30.257Z,100828.22
2018-08-16T06:19:58.417Z,100829.57
2018-08-16T06:22:32.940Z,100825.23
2018-08-16T06:25:01.068Z,100822.77
2018-08-16T06:27:29.160Z,100827.77
2018-08-16T06:29:57.542Z,100822.07
2018-08-16T06:32:25.679Z,100818.63
2018-08-16T06:34:53.788Z,100821.88
2018-08-16T06:37:21.896Z,100812.56
2018-08-16T06:39:50.085Z,100809.73
2018-08-16T06:42:18.200Z,100809.50
2018-08-16T06:44:46.337Z,100804.56
2018-08-16T06:47:16.941Z,100804.88
2018-08-16T06:49:46.111Z,100808.45
2018-08-16T06:52:14.449Z,100804.95
2018-08-16T06:54:42.572Z,100799.75
2018-08-16T06:57:10.709Z,100806.82
2018-08-16T06:59:38.826Z,100803.12
2018-08-16T07:02:06.995Z,100802.48
2018-08-16T07:04:35.195Z,100799.05
2018-08-16T07:07:03.312Z,100802.28
2018-08-16T07:09:31.405Z,100794.52
2018-08-16T07:11:59.625Z,100793.86
2018-08-16T07:14:27.626Z,100794.70
2018-08-16T07:16:55.912Z,100795.21
2018-08-16T07:19:24.008Z,100782.81
2018-08-16T07:21:52.589Z,100789.81
2018-08-16T07:24:20.722Z,100783.88
2018-08-16T07:26:48.771Z,100784.56
2018-08-16T07:29:16.880Z,100779.37
2018-08-16T07:31:45.027Z,100779.84
2018-08-16T07:34:13.103Z,100777.44
2018-08-16T07:36:41.197Z,100776.49
2018-08-16T07:39:10.436Z,100776.47
2018-08-16T07:41:38.826Z,100771.44
2018-08-16T07:44:07.060Z,100773.25
2018-08-16T07:46:35.252Z,100769.60
2018-08-16T07:49:03.409Z,100774.86
2018-08-16T07:51:31.656Z,100774.12
2018-08-16T07:53:59.649Z,100769.30
2018-08-16T07:56:27.749Z,100777.91
2018-08-16T07:58:55.901Z,100772.30
2018-08-16T08:01:24.035Z,100774.69
2018-08-16T08:03:52.271Z,100775.48
2018-08-16T08:06:20.450Z,100758.73
2018-08-16T08:08:48.606Z,100780.47
2018-08-16T08:11:16.699Z,100770.98
2018-08-16T08:13:45.457Z,100773.77
2018-08-16T08:16:20.129Z,100762.56
2018-08-16T08:18:48.248Z,100759.60
2018-08-16T08:21:16.449Z,100764.31
2018-08-16T08:23:44.564Z,100761.42
2018-08-16T08:26:12.643Z,100754.41
2018-08-16T08:28:40.740Z,100747.86
2018-08-16T08:31:08.824Z,100746.28
2018-08-16T08:33:36.921Z,100742.84
2018-08-16T08:36:16.323Z,100740.38
2018-08-16T08:38:44.497Z,100741.11
2018-08-16T08:41:12.603Z,100740.34
2018-08-16T08:43:51.916Z,100730.58
2018-08-16T08:46:20.019Z,100727.69
2018-08-16T08:48:48.101Z,100727.73
2018-08-16T08:51:16.204Z,100732.95
2018-08-16T08:54:55.816Z,100729.67
2018-08-16T08:57:35.953Z,100730.03
2018-08-16T09:00:04.796Z,100724.00
2018-08-16T09:02:32.939Z,100717.77
2018-08-16T09:05:01.128Z,100710.15
2018-08-16T09:07:29.267Z,100706.64
2018-08-16T09:11:36.120Z,100711.61
2018-08-16T09:14:15.744Z,100699.09
2018-08-16T09:16:43.876Z,100704.00
2018-08-16T09:19:12.335Z,100697.73
2018-08-16T09:21:40.428Z,100697.19
2018-08-16T09:24:08.542Z,100702.09
2018-08-16T09:26:40.771Z,100695.55
2018-08-16T09:29:20.285Z,100693.08
2018-08-16T09:34:06.334Z,100692.27
2018-08-16T09:36:34.411Z,100691.44
2018-08-16T09:39:02.497Z,100689.78
2018-08-16T09:41:30.603Z,100688.64
2018-08-16T09:43:58.704Z,100683.72
2018-08-16T09:47:07.892Z,100688.58
2018-08-16T09:49:38.656Z,100681.73
2018-08-16T09:52:07.475Z,100677.87
2018-08-16T09:54:35.623Z,100675.26
2018-08-16T09:57:05.030Z,100672.22
2018-08-16T09:59:33.116Z,100669.41
2018-08-16T10:02:01.301Z,100669.88
2018-08-16T10:04:29.636Z,100669.83
2018-08-16T10:06:57.816Z,100666.77
2018-08-16T10:09:28.044Z,100669.20
2018-08-16T10:11:56.915Z,100658.84
2018-08-16T10:14:26.167Z,100661.52
2018-08-16T10:16:54.315Z,100649.63
2018-08-16T10:19:22.992Z,100654.59
2018-08-16T10:21:51.119Z,100653.73
2018-08-16T10:24:19.216Z,100645.75
2018-08-16T10:26:47.357Z,100642.16
2018-08-16T10:29:15.451Z,100637.09
2018-08-16T10:31:43.551Z,100629.94
2018-08-16T10:34:11.789Z,100631.05
2018-08-16T10:36:39.987Z,100631.97
2018-08-16T10:39:11.743Z,100629.87
2018-08-16T10:41:39.843Z,100621.50
2018-08-16T10:44:08.071Z,100629.80
2018-08-16T10:46:36.245Z,100625.16
2018-08-16T10:49:04.388Z,100629.91
2018-08-16T10:51:32.507Z,100618.63
2018-08-16T10:54:00.600Z,100626.78
2018-08-16T10:56:28.736Z,100619.78
2018-08-16T10:58:56.876Z,100605.80
2018-08-16T11:01:25.097Z,100613.77
2018-08-16T11:03:53.170Z,100607.27
2018-08-16T11:06:21.292Z,100602.69
2018-08-16T11:08:49.373Z,100605.12
2018-08-16T11:11:17.462Z,100603.66
2018-08-16T11:13:45.559Z,100601.43
2018-08-16T11:16:20.271Z,100597.20
2018-08-16T11:18:48.393Z,100595.70
2018-08-16T11:21:16.468Z,100584.50
2018-08-16T11:23:44.576Z,100590.44
2018-08-16T11:26:12.675Z,100590.89
2018-08-16T11:28:40.794Z,100588.06
2018-08-16T11:31:08.882Z,100583.22
2018-08-16T11:33:36.995Z,100581.45
2018-08-16T11:36:05.107Z,100585.39
2018-08-16T11:38:33.211Z,100574.12
2018-08-16T11:41:01.303Z,100585.28
2018-08-16T11:43:29.403Z,100580.39
2018-08-16T11:45:57.509Z,100569.64
2018-08-16T11:48:25.616Z,100571.59
2018-08-16T11:50:53.703Z,100569.59
2018-08-16T11:53:21.833Z,100570.98
2018-08-16T11:55:49.928Z,100554.17
2018-08-16T11:58:18.062Z,100559.41
2018-08-16T12:00:46.231Z,100557.43
2018-08-16T12:03:14.352Z,100554.31
2018-08-16T12:05:42.435Z,100551.56
2018-08-16T12:08:10.522Z,100542.15
2018-08-16T12:10:38.627Z,100545.65
2018-08-16T12:13:06.766Z,100541.81
2018-08-16T12:15:35.012Z,100534.11
2018-08-16T12:18:03.100Z,100533.79
2018-08-16T12:20:31.240Z,100538.87
2018-08-16T12:22:59.356Z,100527.83
2018-08-16T12:25:27.488Z,100521.97
2018-08-16T12:27:55.683Z,100518.09
2018-08-16T12:30:23.843Z,100515.61
2018-08-16T12:32:51.995Z,100515.83
2018-08-16T12:35:20.151Z,100512.56
2018-08-16T12:37:48.384Z,100513.07
2018-08-16T12:40:16.538Z,100508.95
2018-08-16T12:42:44.660Z,100509.88
2018-08-16T12:45:12.788Z,100503.51
2018-08-16T12:47:41.005Z,100501.25
2018-08-16T12:50:09.999Z,100506.94
2018-08-16T12:52:38.116Z,100505.77
2018-08-16T12:55:06.248Z,100502.48
2018-08-16T12:57:34.541Z,100493.72
2018-08-16T13:00:02.740Z,100492.66
2018-08-16T13:02:30.832Z,100490.50
2018-08-16T13:04:59.029Z,100491.67
2018-08-16T13:07:27.154Z,100489.30
2018-08-16T13:09:55.222Z,100481.73
2018-08-16T13:12:23.305Z,100481.15
2018-08-16T13:14:51.435Z,100483.50
2018-08-16T13:17:19.475Z,100477.39
2018-08-16T13:19:47.584Z,100470.83
2018-08-16T13:22:15.663Z,100475.62
2018-08-16T13:24:43.724Z,100468.69
2018-08-16T13:27:11.845Z,100464.33
2018-08-16T13:29:39.972Z,100459.05
2018-08-16T13:32:08.056Z,100462.23
2018-08-16T13:34:36.288Z,100456.34
2018-08-16T13:37:04.360Z,100460.31
2018-08-16T13:39:32.560Z,100455.28
2018-08-16T13:42:00.645Z,100446.45
2018-08-16T13:44:28.704Z,100445.14
2018-08-16T13:46:56.795Z,100450.98
2018-08-16T13:49:24.881Z,100446.13
2018-08-16T13:51:52.947Z,100445.95
2018-08-16T13:54:21.011Z,100433.05
2018-08-16T13:56:49.088Z,100436.96
2018-08-16T13:59:17.223Z,100434.14
2018-08-16T14:01:45.289Z,100427.09
2018-08-16T14:04:13.363Z,100427.22
2018-08-16T14:06:41.439Z,100415.88
2018-08-16T14:09:10.596Z,100417.14
2018-08-16T14:11:38.696Z,100416.24
2018-08-16T14:14:06.797Z,100412.20
2018-08-16T14:16:34.874Z,100415.54
2018-08-16T14:19:02.945Z,100410.64
2018-08-16T14:21:31.115Z,100409.14
2018-08-16T14:23:59.174Z,100406.50
2018-08-16T14:26:27.262Z,100398.58
2018-08-16T14:28:55.315Z,100399.55
2018-08-16T14:31:23.379Z,100397.27
2018-08-16T14:33:51.860Z,100396.13
2018-08-16T14:36:20.176Z,100398.09
2018-08-16T14:38:50.322Z,100396.87
2018-08-16T14:41:22.113Z,100397.83
2018-08-16T14:43:51.109Z,100401.23
2018-08-16T14:46:24.103Z,100396.09
2018-08-16T14:48:53.882Z,100389.04
2018-08-16T14:51:23.099Z,100390.42
2018-08-16T14:53:51.439Z,100386.92
2018-08-16T14:56:20.781Z,100386.99
2018-08-16T14:58:49.215Z,100380.58
2018-08-16T15:01:17.734Z,100384.46
2018-08-16T15:03:46.333Z,100378.86
2018-08-16T15:06:15.354Z,100378.78
2018-08-16T15:08:43.419Z,100372.22
2018-08-16T15:11:11.605Z,100376.77
2018-08-16T15:13:39.747Z,100372.63
2018-08-16T15:16:07.879Z,100377.13
2018-08-16T15:18:35.943Z,100373.34
2018-08-16T15:21:04.286Z,100369.83
2018-08-16T15:23:32.656Z,100367.97
2018-08-16T15:26:01.962Z,100370.09
2018-08-16T15:28:36.798Z,100370.16
2018-08-16T15:31:06.188Z,100363.74
2018-08-16T15:33:35.389Z,100363.41
2018-08-16T15:36:04.272Z,100358.28
2018-08-16T15:38:33.066Z,100357.33
2018-08-16T15:41:01.687Z,100352.70
2018-08-16T15:43:30.157Z,100346.05
2018-08-16T15:46:00.111Z,100352.06
2018-08-16T15:48:29.783Z,100344.34
2018-08-16T15:53:50.372Z,100341.64
2018-08-16T15:56:18.427Z,100335.56
2018-08-16T15:58:46.491Z,100336.46
2018-08-16T16:01:14.592Z,100333.86
2018-08-16T16:03:42.666Z,100329.70
2018-08-16T16:06:10.847Z,100334.46
2018-08-16T16:08:38.816Z,100328.12
2018-08-16T16:11:07.710Z,100326.73
2018-08-16T16:13:38.417Z,100326.33
2018-08-16T16:16:06.486Z,100324.46
2018-08-16T16:18:34.572Z,100326.24
2018-08-16T16:21:02.628Z,100329.42
2018-08-16T16:23:31.210Z,100323.55
2018-08-16T16:25:59.455Z,100327.86
2018-08-16T16:28:27.573Z,100319.83
2018-08-16T16:30:55.799Z,100317.30
2018-08-16T16:33:33.343Z,100313.98
2018-08-16T16:36:01.415Z,100310.92
2018-08-16T16:38:29.630Z,100309.08
2018-08-16T16:40:57.670Z,100309.83
2018-08-16T16:43:25.773Z,100305.00
2018-08-16T16:45:53.847Z,100299.81
2018-08-16T16:48:22.052Z,100297.85
2018-08-16T16:50:50.134Z,100295.16
2018-08-16T16:53:18.256Z,100299.94
2018-08-16T16:55:46.388Z,100298.27
2018-08-16T16:58:14.458Z,100294.61
2018-08-16T17:00:42.528Z,100293.78
2018-08-16T17:03:10.596Z,100293.45
2018-08-16T17:05:38.742Z,100293.06
2018-08-16T17:08:06.845Z,100289.80
2018-08-16T17:10:34.973Z,100287.22
2018-08-16T17:13:03.007Z,100284.39
2018-08-16T17:15:31.917Z,100289.91
2018-08-16T17:18:00.171Z,100292.41
2018-08-16T17:20:28.235Z,100285.77
2018-08-16T17:22:56.300Z,100285.61
2018-08-16T17:25:24.352Z,100286.52
2018-08-16T17:27:52.431Z,100285.05
2018-08-16T17:30:20.504Z,100287.72
2018-08-16T17:32:48.579Z,100288.41
2018-08-16T17:35:16.641Z,100284.34
2018-08-16T17:37:44.735Z,100288.97
2018-08-16T17:40:12.791Z,100277.03
2018-08-16T17:42:40.903Z,100282.08
2018-08-16T17:45:08.963Z,100287.84
2018-08-16T17:47:37.056Z,100284.16
2018-08-16T17:50:05.995Z,100285.42
2018-08-16T17:52:34.390Z,100280.36
2018-08-16T17:55:02.988Z,100283.63
2018-08-16T17:57:32.118Z,100283.39
2018-08-16T18:00:00.354Z,100282.45
2018-08-16T18:02:28.683Z,100276.24
2018-08-16T18:04:57.343Z,100271.69
2018-08-16T18:07:25.523Z,100274.19
2018-08-16T18:09:53.712Z,100267.26
2018-08-16T18:12:22.938Z,100270.11
2018-08-16T18:14:51.106Z,100271.41
2018-08-16T18:17:19.298Z,100270.89
2018-08-16T18:19:47.714Z,100270.75
2018-08-16T18:22:15.855Z,100264.17
2018-08-16T18:24:44.117Z,100268.77
2018-08-16T18:27:12.880Z,100266.33
2018-08-16T18:29:41.469Z,100273.28
2018-08-16T18:32:09.752Z,100271.64
2018-08-16T18:34:38.002Z,100277.46
2018-08-16T18:37:06.265Z,100271.64
2018-08-16T18:39:34.479Z,100278.57
2018-08-16T18:42:03.058Z,100275.94
2018-08-16T18:44:31.587Z,100278.13
2018-08-16T18:47:00.459Z,100278.91
2018-08-16T18:49:28.959Z,100276.41
2018-08-16T18:51:57.128Z,100273.03
2018-08-16T18:54:25.326Z,100279.64
2018-08-16T18:56:53.508Z,100283.25
2018-08-16T18:59:21.641Z,100276.27
2018-08-16T19:01:49.748Z,100277.69
2018-08-16T19:04:18.118Z,100275.64
2018-08-16T19:06:46.292Z,100277.20
2018-08-16T19:09:15.438Z,100275.41
2018-08-16T19:11:46.814Z,100277.37
2018-08-16T19:14:16.997Z,100279.72
2018-08-16T19:16:46.993Z,100284.06
2018-08-16T19:19:15.715Z,100286.34
2018-08-16T19:21:43.958Z,100293.92
2018-08-16T19:24:13.249Z,100283.55
2018-08-16T19:26:41.694Z,100294.00
2018-08-16T19:29:09.947Z,100293.52
2018-08-16T19:31:38.208Z,100292.25
2018-08-16T19:34:06.544Z,100293.92
2018-08-16T19:36:34.752Z,100297.49
2018-08-16T19:39:03.054Z,100296.45
2018-08-16T19:41:31.298Z,100294.44
2018-08-16T19:43:59.460Z,100292.53
2018-08-16T19:46:27.643Z,100296.92
2018-08-16T19:48:55.848Z,100290.40
2018-08-16T19:51:24.639Z,100294.53
2018-08-16T19:53:52.889Z,100292.90
2018-08-16T19:56:21.114Z,100291.25
2018-08-16T19:58:49.785Z,100292.65
2018-08-16T20:01:18.972Z,100291.08
2018-08-16T20:03:47.711Z,100296.31
2018-08-16T20:06:15.950Z,100304.80
2018-08-16T20:08:44.136Z,100302.92
2018-08-16T20:11:12.379Z,100298.53
2018-08-16T20:13:40.444Z,100302.34
2018-08-16T20:16:08.507Z,100307.00
2018-08-16T20:18:36.672Z,100308.88
2018-08-16T20:21:05.056Z,100307.23
2018-08-16T20:23:33.244Z,100305.33
2018-08-16T20:26:01.603Z,100302.60
2018-08-16T20:28:29.899Z,100302.57
2018-08-16T20:30:58.291Z,100308.59
2018-08-16T20:33:26.560Z,100300.16
2018-08-16T20:35:54.860Z,100308.87
2018-08-16T20:38:23.306Z,100301.52
2018-08-16T20:40:51.490Z,100305.31
2018-08-16T20:43:19.771Z,100309.39
2018-08-16T20:45:47.980Z,100306.13
2018-08-16T20:48:48.635Z,100304.75
2018-08-16T20:51:17.752Z,100309.33
2018-08-16T20:53:45.954Z,100311.24
2018-08-16T20:56:14.225Z,100310.94
2018-08-16T20:58:42.463Z,100306.58
2018-08-16T21:01:10.706Z,100310.07
2018-08-16T21:03:39.889Z,100309.96
2018-08-16T21:06:08.526Z,100314.03
2018-08-16T21:08:36.720Z,100315.90
2018-08-16T21:11:04.909Z,100315.30
2018-08-16T21:13:33.153Z,100313.72
2018-08-16T21:16:01.381Z,100315.90
2018-08-16T21:18:29.752Z,100306.00
2018-08-16T21:20:58.171Z,100313.41
2018-08-16T21:23:26.313Z,100309.62
2018-08-16T21:25:54.547Z,100313.70
2018-08-16T21:31:01.700Z,100310.20
2018-08-16T21:33:30.000Z,100307.23
2018-08-16T21:35:58.310Z,100314.52
2018-08-16T21:38:26.706Z,100315.73
2018-08-16T21:40:54.889Z,100309.05
2018-08-16T21:43:23.201Z,100315.78
2018-08-16T21:45:51.464Z,100313.02
2018-08-16T21:48:19.695Z,100316.32
2018-08-16T21:50:48.034Z,100326.39
2018-08-16T21:53:16.249Z,100325.88
2018-08-16T21:55:44.589Z,100330.45
2018-08-16T21:58:12.907Z,100315.46
2018-08-16T22:00:52.489Z,100331.02
2018-08-16T22:03:23.926Z,100331.81
2018-08-16T22:05:54.890Z,100329.74
2018-08-16T22:08:23.555Z,100323.62
2018-08-16T22:10:51.877Z,100326.20
2018-08-16T22:13:19.992Z,100320.20
2018-08-16T22:15:48.046Z,100321.73
2018-08-16T22:18:16.099Z,100315.18
2018-08-16T22:20:44.160Z,100319.95
2018-08-16T22:23:12.217Z,100315.08
2018-08-16T22:25:40.299Z,100314.45
2018-08-16T22:28:08.377Z,100314.19
2018-08-16T22:30:36.465Z,100318.91
2018-08-16T22:33:04.569Z,100320.59
2018-08-16T22:35:32.617Z,100309.86
2018-08-16T22:38:00.690Z,100318.45
2018-08-16T22:40:28.759Z,100313.09
2018-08-16T22:42:56.809Z,100317.95
2018-08-16T22:45:24.900Z,100320.62
2018-08-16T22:47:52.991Z,100318.47
2018-08-16T22:50:21.059Z,100319.56
2018-08-16T22:52:49.135Z,100316.85
2018-08-16T22:55:17.211Z,100318.06
2018-08-16T22:57:45.307Z,100313.55
2018-08-16T23:00:13.411Z,100312.45
2018-08-16T23:02:42.047Z,100311.89
2018-08-16T23:05:10.172Z,100314.34
2018-08-16T23:07:38.233Z,100310.57
2018-08-16T23:10:06.422Z,100321.28
2018-08-16T23:12:34.506Z,100314.60
2018-08-16T23:15:02.580Z,100311.56
2018-08-16T23:17:30.647Z,100316.15
2018-08-16T23:19:58.764Z,100310.20
2018-08-16T23:22:26.816Z,100322.48
2018-08-16T23:24:54.898Z,100312.73
2018-08-16T23:27:22.967Z,100317.37
2018-08-16T23:29:51.043Z,100305.42
2018-08-16T23:32:19.143Z,100313.16
2018-08-16T23:34:47.202Z,100306.80
2018-08-16T23:37:15.293Z,100308.88
2018-08-16T23:39:43.406Z,100304.55
2018-08-16T23:42:11.476Z,100308.84
2018-08-16T23:44:39.556Z,100304.66
2018-08-16T23:47:07.631Z,100307.22
2018-08-16T23:49:35.691Z,100294.42
2018-08-16T23:52:03.773Z,100304.69
2018-08-16T23:54:31.856Z,100304.20
2018-08-16T23:56:59.917Z,100304.56
2018-08-16T23:59:28.023Z,100300.50
